Time;durP1;ratioP1;P1;durP2;ratioP2;P2;SDS_P1;SDS_P2;PMS_P1;PMS_P2;Temp;Humidity;BMP_temperature;BMP_pressure;BME280_temperature;BME280_humidity;BME280_pressure;Samples;Min_cycle;Max_cycle;Signal;HPM_P1;HPM_P2
2022/09/23 00:36:42;;;;;;;7.97;3.10;;;14.80;77.00;;;;;;5016877;28;20156;-68
2022/09/23 00:39:14;;;;;;;7.32;2.97;;;14.80;77.00;;;;;;5018929;28;20123;-69
2022/09/23 01:23:11;;;;;;;4.75;2.80;;;14.70;76.90;;;;;;5020702;28;20040;-69
2022/09/23 06:19:34;;;;;;;8.00;4.97;;;14.20;75.50;;;;;;5021066;28;20038;-65
2022/09/23 17:26:12;;;;;;;14.10;6.25;;;16.40;79.20;;;;;;5025109;28;20570;-65
2022/09/23 17:28:38;;;;;;;10.80;5.63;;;16.30;79.10;;;;;;5006294;28;20410;-67
2022/09/23 17:31:05;;;;;;;9.73;6.10;;;16.30;79.10;;;;;;5019527;28;20095;-66
2022/09/23 17:33:33;;;;;;;8.50;5.93;;;16.30;79.20;;;;;;5008337;28;20026;-65
2022/09/23 19:25:07;;;;;;;16.25;7.72;;;16.00;80.20;;;;;;5019953;28;20398;-65
2022/09/23 21:55:38;;;;;;;16.35;6.93;;;15.70;81.70;;;;;;5031236;28;20056;-66
2022/09/23 21:58:04;;;;;;;14.65;7.57;;;15.70;81.70;;;;;;5014862;28;20034;-67
2022/09/23 22:00:30;;;;;;;13.30;7.90;;;15.80;81.90;;;;;;5012239;28;20379;-66
2022/09/23 22:02:55;;;;;;;19.10;7.70;;;15.70;81.80;;;;;;4997426;28;20083;-65
2022/09/23 22:05:22;;;;;;;14.20;7.22;;;15.70;81.80;;;;;;5022802;28;20021;-66
2022/09/23 22:18:21;;;;;;;15.50;6.53;;;15.70;81.90;;;;;;5033841;28;20398;-67
2022/09/23 22:20:47;;;;;;;11.55;6.53;;;15.70;81.90;;;;;;5019307;28;20091;-67
2022/09/23 22:23:13;;;;;;;15.65;7.20;;;15.70;82.00;;;;;;5028974;28;20029;-67
2022/09/23 22:25:39;;;;;;;14.43;6.65;;;15.70;82.00;;;;;;5035196;28;20037;-68
2022/09/23 22:33:32;;;;;;;17.63;8.55;;;15.70;82.00;;;;;;5033568;28;20044;-67
2022/09/23 22:36:02;;;;;;;14.10;6.93;;;15.70;82.00;;;;;;5025969;28;20109;-67
2022/09/23 22:38:29;;;;;;;16.77;7.55;;;15.70;82.10;;;;;;5022816;28;20048;-67
2022/09/23 22:40:56;;;;;;;11.65;6.25;;;15.70;82.10;;;;;;5041307;28;20056;-67
2022/09/23 22:43:21;;;;;;;11.73;6.70;;;15.70;82.20;;;;;;5023231;28;20048;-67
2022/09/23 22:45:49;;;;;;;9.90;6.28;;;15.70;82.20;;;;;;5028370;28;20057;-67
2022/09/23 22:48:16;;;;;;;13.05;7.40;;;15.70;82.20;;;;;;5025597;28;20029;-68
2022/09/23 22:50:42;;;;;;;11.48;6.78;;;15.70;82.90;;;;;;5048472;28;20028;-67
2022/09/23 22:53:09;;;;;;;13.20;6.82;;;15.70;82.20;;;;;;5040773;28;20045;-68
2022/09/23 22:55:35;;;;;;;10.68;6.90;;;15.70;82.20;;;;;;5039633;28;20025;-67
2022/09/23 22:58:00;;;;;;;10.95;6.55;;;15.70;82.20;;;;;;5043231;28;20478;-67
2022/09/23 23:00:27;;;;;;;21.75;7.88;;;15.60;82.20;;;;;;5042319;28;20021;-68
2022/09/23 23:02:54;;;;;;;28.85;10.80;;;15.70;82.20;;;;;;5046234;28;20055;-67
2022/09/23 23:05:20;;;;;;;20.23;8.63;;;15.70;82.30;;;;;;5043750;28;20052;-68
2022/09/23 23:07:45;;;;;;;17.02;8.60;;;15.60;82.20;;;;;;5042870;28;20064;-67
2022/09/23 23:10:12;;;;;;;10.35;5.93;;;15.60;82.30;;;;;;5033764;28;20201;-67
2022/09/23 23:12:38;;;;;;;12.65;6.55;;;15.60;82.30;;;;;;5025988;28;20037;-67
2022/09/23 23:15:05;;;;;;;15.98;7.18;;;15.60;82.30;;;;;;5030904;28;20047;-67
2022/09/23 23:17:30;;;;;;;11.52;6.90;;;15.60;82.20;;;;;;5019831;28;20036;-67
2022/09/23 23:19:56;;;;;;;13.05;6.53;;;15.60;82.30;;;;;;5031855;28;20033;-67
2022/09/23 23:22:26;;;;;;;14.68;6.70;;;15.60;82.40;;;;;;5036907;28;20032;-67
2022/09/23 23:28:30;;;;;;;17.55;6.18;;;15.60;82.40;;;;;;4974115;28;20082;-68
2022/09/23 23:31:02;;;;;;;11.93;7.50;;;15.60;82.40;;;;;;4975827;28;20063;-67
2022/09/23 23:33:27;;;;;;;16.15;8.05;;;15.60;82.40;;;;;;4964511;28;20061;-67
2022/09/23 23:35:53;;;;;;;18.45;7.18;;;15.60;82.40;;;;;;4958761;28;20065;-67
2022/09/23 23:38:18;;;;;;;12.82;8.02;;;15.60;82.50;;;;;;4964848;28;20030;-68
2022/09/23 23:40:45;;;;;;;12.98;6.55;;;15.70;82.50;;;;;;4972038;28;20019;-67
2022/09/23 23:43:10;;;;;;;14.07;7.55;;;15.60;82.50;;;;;;4954085;28;20027;-67
2022/09/23 23:45:36;;;;;;;18.08;7.95;;;15.60;82.50;;;;;;4978352;28;20094;-67
2022/09/23 23:48:02;;;;;;;16.17;8.55;;;15.60;82.50;;;;;;4975227;28;20118;-67
2022/09/23 23:50:27;;;;;;;9.13;6.60;;;15.60;82.50;;;;;;4979087;28;20027;-67
2022/09/23 23:52:53;;;;;;;10.60;6.20;;;15.60;82.50;;;;;;4980848;28;20042;-68
2022/09/23 23:55:18;;;;;;;11.85;6.93;;;15.60;82.50;;;;;;4974647;28;20031;-68
2022/09/23 23:57:44;;;;;;;11.23;6.63;;;15.60;82.60;;;;;;4972292;28;20066;-67
